CheckWX is a tool to help pilots better visualize weather data.  It is not intended as a substitute for an official pre-flight weather briefing.

12:03:49 UTC

KSSF METAR
Stinson Municipal Airport
San Antonio, Texas, USA
Current

11 mins ago

KSSF 201153Z 08004KT 9SM OVC017 27/23 A3000 RMK AO2 SLP142 T02670228 10283 20267 53005
Observed
Aug-20 @ 11:53 UTC
Wind
  • 080° at 4 KTS
Visibility
9 SM
Flight Rules
MVFR
Cloud Levels
  • Overcast at 1,700' AGL
Temperature
27°C / 81°F
Dewpoint
23°C / 73°F
Heat Index
30°C / 86°F
Humidity
79%
Altimeter
30" Hg
Pressure
1015.92 hPa
Previous

1 hour ago

KSSF 201053Z AUTO 00000KT 9SM OVC018 27/23 A2998 RMK AO2 SLP137 T02670228
Observed
Aug-20 @ 10:53 UTC
Visibility
9 SM
Flight Rules
MVFR
Cloud Levels
  • Overcast at 1,800' AGL
Temperature
27°C / 81°F
Dewpoint
23°C / 73°F
Heat Index
30°C / 86°F
Humidity
79%
Altimeter
29.98" Hg
Pressure
1015.22 hPa
Previous

2 hours ago

KSSF 200953Z AUTO 13003KT 10SM OVC016 27/23 A2997 RMK AO2 SLP134 T02670228
Observed
Aug-20 @ 09:53 UTC
Wind
  • 130° at 3 KTS
Visibility
10 SM
Flight Rules
MVFR
Cloud Levels
  • Overcast at 1,600' AGL
Temperature
27°C / 81°F
Dewpoint
23°C / 73°F
Heat Index
30°C / 86°F
Humidity
79%
Altimeter
29.97" Hg
Pressure
1014.92 hPa